sensor_id;sensor_type;location;lat;lon;timestamp;pressure;altitude;pressure_sealevel;temperature;humidity
23363;BME280;11853;48.080;11.960;2023-02-08T00:02:25;96576.53;;;-2.51;63.11
23363;BME280;11853;48.080;11.960;2023-02-08T00:04:50;96569.06;;;-2.66;63.95
23363;BME280;11853;48.080;11.960;2023-02-08T00:07:16;96564.19;;;-2.41;63.56
23363;BME280;11853;48.080;11.960;2023-02-08T00:09:41;96559.31;;;-2.55;63.50
23363;BME280;11853;48.080;11.960;2023-02-08T00:12:07;96573.16;;;-2.54;63.89
23363;BME280;11853;48.080;11.960;2023-02-08T00:14:32;96565.38;;;-2.56;63.85
23363;BME280;11853;48.080;11.960;2023-02-08T00:16:58;96569.63;;;-2.52;64.17
23363;BME280;11853;48.080;11.960;2023-02-08T00:19:23;96564.50;;;-2.55;64.40
23363;BME280;11853;48.080;11.960;2023-02-08T00:21:49;96565.38;;;-2.56;64.58
23363;BME280;11853;48.080;11.960;2023-02-08T00:24:14;96560.50;;;-2.71;64.81
23363;BME280;11853;48.080;11.960;2023-02-08T00:26:40;96557.06;;;-2.73;65.65
23363;BME280;11853;48.080;11.960;2023-02-08T00:29:06;96558.75;;;-2.70;65.47
23363;BME280;11853;48.080;11.960;2023-02-08T00:31:31;96562.25;;;-2.72;65.54
23363;BME280;11853;48.080;11.960;2023-02-08T00:33:56;96565.75;;;-2.76;67.00
23363;BME280;11853;48.080;11.960;2023-02-08T00:36:22;96566.59;;;-2.74;66.75
23363;BME280;11853;48.080;11.960;2023-02-08T00:38:47;96569.06;;;-2.66;66.57
23363;BME280;11853;48.080;11.960;2023-02-08T00:41:13;96553.63;;;-2.74;66.93
23363;BME280;11853;48.080;11.960;2023-02-08T00:43:39;96555.31;;;-2.71;67.01
23363;BME280;11853;48.080;11.960;2023-02-08T00:46:05;96556.94;;;-2.67;67.50
23363;BME280;11853;48.080;11.960;2023-02-08T00:48:32;96549.41;;;-2.79;68.30
23363;BME280;11853;48.080;11.960;2023-02-08T00:51:03;96552.19;;;-2.90;68.31
23363;BME280;11853;48.080;11.960;2023-02-08T00:53:29;96558.34;;;-2.94;68.86
23363;BME280;11853;48.080;11.960;2023-02-08T00:55:55;96552.19;;;-2.90;68.33
23363;BME280;11853;48.080;11.960;2023-02-08T00:58:21;96560.09;;;-2.95;68.82
23363;BME280;11853;48.080;11.960;2023-02-08T01:00:50;96562.81;;;-3.04;69.25
23363;BME280;11853;48.080;11.960;2023-02-08T01:03:17;96561.06;;;-3.00;70.17
23363;BME280;11853;48.080;11.960;2023-02-08T01:05:42;96560.81;;;-2.89;69.76
23363;BME280;11853;48.080;11.960;2023-02-08T01:08:09;96558.28;;;-2.92;68.97
23363;BME280;11853;48.080;11.960;2023-02-08T01:10:34;96560.94;;;-2.94;69.68
23363;BME280;11853;48.080;11.960;2023-02-08T01:13:00;96556.78;;;-3.03;70.29
23363;BME280;11853;48.080;11.960;2023-02-08T01:15:26;96547.25;;;-3.04;70.25
23363;BME280;11853;48.080;11.960;2023-02-08T01:17:55;96553.03;;;-2.89;69.35
23363;BME280;11853;48.080;11.960;2023-02-08T01:20:21;96553.28;;;-3.02;70.48
23363;BME280;11853;48.080;11.960;2023-02-08T01:22:47;96548.31;;;-3.14;70.89
23363;BME280;11853;48.080;11.960;2023-02-08T01:25:13;96544.16;;;-3.24;71.45
23363;BME280;11853;48.080;11.960;2023-02-08T01:27:39;96549.97;;;-3.10;71.50
23363;BME280;11853;48.080;11.960;2023-02-08T01:30:04;96550.69;;;-3.02;70.52
23363;BME280;11853;48.080;11.960;2023-02-08T01:32:30;96550.81;;;-3.08;70.18
23363;BME280;11853;48.080;11.960;2023-02-08T01:34:58;96548.25;;;-3.11;70.81
23363;BME280;11853;48.080;11.960;2023-02-08T01:37:23;96539.44;;;-3.02;70.06
23363;BME280;11853;48.080;11.960;2023-02-08T01:39:49;96540.13;;;-2.92;69.63
23363;BME280;11853;48.080;11.960;2023-02-08T01:42:18;96540.97;;;-2.92;68.80
23363;BME280;11853;48.080;11.960;2023-02-08T01:47:41;96549.63;;;-2.91;68.17
23363;BME280;11853;48.080;11.960;2023-02-08T01:50:08;96544.38;;;-2.88;68.10
23363;BME280;11853;48.080;11.960;2023-02-08T01:52:34;96542.59;;;-2.86;68.33
23363;BME280;11853;48.080;11.960;2023-02-08T01:55:28;96542.66;;;-2.89;68.99
23363;BME280;11853;48.080;11.960;2023-02-08T01:57:58;96540.31;;;-3.02;68.29
23363;BME280;11853;48.080;11.960;2023-02-08T02:00:25;96535.03;;;-2.97;68.37
23363;BME280;11853;48.080;11.960;2023-02-08T02:02:53;96532.47;;;-2.99;68.23
23363;BME280;11853;48.080;11.960;2023-02-08T02:05:25;96531.63;;;-3.01;68.65
23363;BME280;11853;48.080;11.960;2023-02-08T02:07:53;96529.13;;;-3.05;68.74
23363;BME280;11853;48.080;11.960;2023-02-08T02:12:52;96530.72;;;-2.98;68.42
23363;BME280;11853;48.080;11.960;2023-02-08T02:15:19;96523.09;;;-3.07;67.55
23363;BME280;11853;48.080;11.960;2023-02-08T02:17:44;96524.84;;;-3.08;69.04
23363;BME280;11853;48.080;11.960;2023-02-08T02:20:25;96525.94;;;-3.20;68.87
23363;BME280;11853;48.080;11.960;2023-02-08T02:23:29;96530.53;;;-3.34;69.76
23363;BME280;11853;48.080;11.960;2023-02-08T02:34:40;96521.03;;;-3.36;70.56
23363;BME280;11853;48.080;11.960;2023-02-08T02:40:02;96520.88;;;-3.27;69.96
23363;BME280;11853;48.080;11.960;2023-02-08T02:45:30;96515.63;;;-3.24;69.83
23363;BME280;11853;48.080;11.960;2023-02-08T02:48:12;96513.88;;;-3.22;69.99
23363;BME280;11853;48.080;11.960;2023-02-08T02:50:46;96519.00;;;-3.19;68.57
23363;BME280;11853;48.080;11.960;2023-02-08T02:56:14;96519.91;;;-3.20;69.57
23363;BME280;11853;48.080;11.960;2023-02-08T02:58:42;96516.88;;;-3.47;70.47
23363;BME280;11853;48.080;11.960;2023-02-08T03:01:09;96512.66;;;-3.51;71.04
23363;BME280;11853;48.080;11.960;2023-02-08T03:03:34;96519.47;;;-3.45;70.99
23363;BME280;11853;48.080;11.960;2023-02-08T03:06:03;96523.75;;;-3.43;70.64
23363;BME280;11853;48.080;11.960;2023-02-08T03:11:56;96521.44;;;-3.59;71.44
23363;BME280;11853;48.080;11.960;2023-02-08T03:22:53;96528.91;;;-3.41;71.28
23363;BME280;11853;48.080;11.960;2023-02-08T03:25:21;96525.69;;;-3.55;71.62
23363;BME280;11853;48.080;11.960;2023-02-08T03:27:58;96524.16;;;-3.66;71.92
23363;BME280;11853;48.080;11.960;2023-02-08T03:30:35;96528.91;;;-3.41;72.19
23363;BME280;11853;48.080;11.960;2023-02-08T03:33:29;96518.56;;;-3.43;71.83
23363;BME280;11853;48.080;11.960;2023-02-08T03:36:05;96529.06;;;-3.49;71.58
23363;BME280;11853;48.080;11.960;2023-02-08T03:38:39;96528.53;;;-3.71;72.64
23363;BME280;11853;48.080;11.960;2023-02-08T03:41:10;96527.53;;;-3.62;73.61
23363;BME280;11853;48.080;11.960;2023-02-08T03:43:43;96519.72;;;-3.59;73.49
23363;BME280;11853;48.080;11.960;2023-02-08T03:48:45;96526.53;;;-3.55;72.88
23363;BME280;11853;48.080;11.960;2023-02-08T03:51:14;96522.34;;;-3.62;73.58
23363;BME280;11853;48.080;11.960;2023-02-08T03:53:43;96525.09;;;-3.71;74.67
23363;BME280;11853;48.080;11.960;2023-02-08T03:57:09;96526.97;;;-3.79;74.42
23363;BME280;11853;48.080;11.960;2023-02-08T03:59:12;96519.97;;;-3.74;75.21
23363;BME280;11853;48.080;11.960;2023-02-08T04:01:44;96515.75;;;-3.80;75.31
23363;BME280;11853;48.080;11.960;2023-02-08T04:04:11;96518.44;;;-3.88;75.57
23363;BME280;11853;48.080;11.960;2023-02-08T04:06:38;96514.78;;;-3.74;75.58
23363;BME280;11853;48.080;11.960;2023-02-08T04:09:04;96513.78;;;-3.67;74.92
23363;BME280;11853;48.080;11.960;2023-02-08T04:11:29;96514.00;;;-3.81;75.17
23363;BME280;11853;48.080;11.960;2023-02-08T04:13:55;96517.44;;;-3.79;74.84
23363;BME280;11853;48.080;11.960;2023-02-08T04:16:21;96518.25;;;-3.75;74.95
23363;BME280;11853;48.080;11.960;2023-02-08T04:18:46;96501.72;;;-3.70;74.90
23363;BME280;11853;48.080;11.960;2023-02-08T04:21:12;96510.50;;;-3.78;75.53
23363;BME280;11853;48.080;11.960;2023-02-08T04:23:37;96503.69;;;-3.82;75.42
23363;BME280;11853;48.080;11.960;2023-02-08T04:26:03;96507.44;;;-4.03;76.61
23363;BME280;11853;48.080;11.960;2023-02-08T04:28:28;96498.72;;;-3.98;77.01
23363;BME280;11853;48.080;11.960;2023-02-08T04:30:54;96499.34;;;-3.80;76.02
23363;BME280;11853;48.080;11.960;2023-02-08T04:33:23;96499.41;;;-3.87;75.58
23363;BME280;11853;48.080;11.960;2023-02-08T04:35:49;96498.66;;;-3.93;76.79
23363;BME280;11853;48.080;11.960;2023-02-08T04:38:14;96498.19;;;-4.18;77.19
23363;BME280;11853;48.080;11.960;2023-02-08T04:40:40;96487.59;;;-4.03;77.47
23363;BME280;11853;48.080;11.960;2023-02-08T04:43:06;96491.19;;;-4.12;77.44
23363;BME280;11853;48.080;11.960;2023-02-08T04:45:31;96493.97;;;-4.25;78.14
23363;BME280;11853;48.080;11.960;2023-02-08T04:47:59;96493.59;;;-4.01;77.46
23363;BME280;11853;48.080;11.960;2023-02-08T04:50:25;96494.59;;;-4.08;78.17
23363;BME280;11853;48.080;11.960;2023-02-08T04:52:51;96493.28;;;-4.38;78.80
23363;BME280;11853;48.080;11.960;2023-02-08T04:55:16;96485.31;;;-4.24;79.41
23363;BME280;11853;48.080;11.960;2023-02-08T04:58:00;96492.91;;;-4.12;78.80
23363;BME280;11853;48.080;11.960;2023-02-08T05:00:26;96486.06;;;-4.16;78.66
23363;BME280;11853;48.080;11.960;2023-02-08T05:02:53;96490.50;;;-4.23;78.56
23363;BME280;11853;48.080;11.960;2023-02-08T05:05:19;96487.94;;;-4.26;79.72
23363;BME280;11853;48.080;11.960;2023-02-08T05:07:45;96483.53;;;-4.21;79.49
23363;BME280;11853;48.080;11.960;2023-02-08T05:10:10;96487.06;;;-4.23;79.33
23363;BME280;11853;48.080;11.960;2023-02-08T05:12:36;96486.91;;;-4.14;79.54
23363;BME280;11853;48.080;11.960;2023-02-08T05:15:02;96478.94;;;-4.02;78.76
23363;BME280;11853;48.080;11.960;2023-02-08T05:17:27;96480.94;;;-4.19;79.11
23363;BME280;11853;48.080;11.960;2023-02-08T05:19:53;96478.28;;;-4.16;80.22
23363;BME280;11853;48.080;11.960;2023-02-08T05:22:19;96474.75;;;-4.11;79.93
23363;BME280;11853;48.080;11.960;2023-02-08T05:24:44;96472.13;;;-4.08;79.41
23363;BME280;11853;48.080;11.960;2023-02-08T05:27:10;96485.22;;;-4.18;79.72
23363;BME280;11853;48.080;11.960;2023-02-08T05:29:35;96479.22;;;-4.20;80.16
23363;BME280;11853;48.080;11.960;2023-02-08T05:32:01;96484.47;;;-4.23;80.29
23363;BME280;11853;48.080;11.960;2023-02-08T05:34:26;96476.66;;;-4.20;80.66
23363;BME280;11853;48.080;11.960;2023-02-08T05:36:52;96486.22;;;-4.27;81.15
23363;BME280;11853;48.080;11.960;2023-02-08T05:39:17;96485.38;;;-4.26;80.59
23363;BME280;11853;48.080;11.960;2023-02-08T05:41:43;96476.09;;;-4.44;81.63
23363;BME280;11853;48.080;11.960;2023-02-08T05:44:08;96481.25;;;-4.41;81.85
23363;BME280;11853;48.080;11.960;2023-02-08T05:46:34;96474.41;;;-4.45;82.10
23363;BME280;11853;48.080;11.960;2023-02-08T05:49:00;96482.22;;;-4.48;81.83
23363;BME280;11853;48.080;11.960;2023-02-08T05:51:25;96484.91;;;-4.54;82.54
23363;BME280;11853;48.080;11.960;2023-02-08T05:53:51;96479.81;;;-4.62;83.13
23363;BME280;11853;48.080;11.960;2023-02-08T05:56:16;96483.16;;;-4.52;83.16
23363;BME280;11853;48.080;11.960;2023-02-08T05:58:42;96479.72;;;-4.54;83.73
23363;BME280;11853;48.080;11.960;2023-02-08T06:01:09;96476.38;;;-4.64;84.41
23363;BME280;11853;48.080;11.960;2023-02-08T06:03:37;96482.94;;;-4.37;83.59
23363;BME280;11853;48.080;11.960;2023-02-08T06:06:03;96486.63;;;-4.56;83.67
23363;BME280;11853;48.080;11.960;2023-02-08T06:08:28;96477.97;;;-4.52;83.86
23363;BME280;11853;48.080;11.960;2023-02-08T06:10:54;96478.69;;;-4.44;83.08
23363;BME280;11853;48.080;11.960;2023-02-08T06:13:20;96485.63;;;-4.44;83.42
23363;BME280;11853;48.080;11.960;2023-02-08T06:15:46;96482.31;;;-4.54;83.81
23363;BME280;11853;48.080;11.960;2023-02-08T06:18:11;96482.41;;;-4.60;83.93
23363;BME280;11853;48.080;11.960;2023-02-08T06:20:37;96482.59;;;-4.76;84.90
23363;BME280;11853;48.080;11.960;2023-02-08T06:23:03;96481.69;;;-4.71;84.64
23363;BME280;11853;48.080;11.960;2023-02-08T06:25:28;96485.03;;;-4.63;84.96
23363;BME280;11853;48.080;11.960;2023-02-08T06:27:54;96485.75;;;-4.55;84.47
23363;BME280;11853;48.080;11.960;2023-02-08T06:30:19;96486.06;;;-4.77;84.59
23363;BME280;11853;48.080;11.960;2023-02-08T06:32:45;96478.22;;;-4.70;85.80
23363;BME280;11853;48.080;11.960;2023-02-08T06:35:10;96490.22;;;-4.63;85.40
23363;BME280;11853;48.080;11.960;2023-02-08T06:37:36;96492.16;;;-4.81;86.16
23363;BME280;11853;48.080;11.960;2023-02-08T06:40:02;96496.50;;;-4.83;87.19
23363;BME280;11853;48.080;11.960;2023-02-08T06:42:28;96499.84;;;-4.76;86.74
23363;BME280;11853;48.080;11.960;2023-02-08T06:44:53;96502.25;;;-4.62;86.58
23363;BME280;11853;48.080;11.960;2023-02-08T06:47:21;96503.16;;;-4.63;87.21
23363;BME280;11853;48.080;11.960;2023-02-08T06:49:47;96499.44;;;-4.45;87.30
23363;BME280;11853;48.080;11.960;2023-02-08T06:52:14;96505.34;;;-4.34;84.85
23363;BME280;11853;48.080;11.960;2023-02-08T06:54:39;96510.13;;;-4.08;84.25
23363;BME280;11853;48.080;11.960;2023-02-08T06:57:05;96511.06;;;-4.14;84.38
23363;BME280;11853;48.080;11.960;2023-02-08T06:59:32;96507.69;;;-4.17;83.84
23363;BME280;11853;48.080;11.960;2023-02-08T07:01:59;96513.47;;;-4.00;84.28
23363;BME280;11853;48.080;11.960;2023-02-08T07:04:25;96509.59;;;-3.76;82.81
23363;BME280;11853;48.080;11.960;2023-02-08T07:06:50;96499.75;;;-3.54;82.28
23363;BME280;11853;48.080;11.960;2023-02-08T07:09:17;96497.63;;;-3.32;81.42
23363;BME280;11853;48.080;11.960;2023-02-08T07:11:43;96510.63;;;-3.33;80.99
23363;BME280;11853;48.080;11.960;2023-02-08T07:14:13;96517.78;;;-3.48;79.81
23363;BME280;11853;48.080;11.960;2023-02-08T07:16:39;96505.72;;;-3.49;80.54
23363;BME280;11853;48.080;11.960;2023-02-08T07:19:04;96517.00;;;-3.53;81.04
23363;BME280;11853;48.080;11.960;2023-02-08T07:21:30;96509.03;;;-3.42;81.01
23363;BME280;11853;48.080;11.960;2023-02-08T07:23:55;96515.63;;;-3.24;80.85
23363;BME280;11853;48.080;11.960;2023-02-08T07:26:22;96507.31;;;-3.42;80.26
23363;BME280;11853;48.080;11.960;2023-02-08T07:28:47;96508.31;;;-3.49;80.32
23363;BME280;11853;48.080;11.960;2023-02-08T07:31:15;96514.25;;;-3.44;81.33
23363;BME280;11853;48.080;11.960;2023-02-08T07:33:43;96524.72;;;-3.50;82.38
23363;BME280;11853;48.080;11.960;2023-02-08T07:36:09;96514.91;;;-3.32;81.69
23363;BME280;11853;48.080;11.960;2023-02-08T07:38:36;96517.44;;;-3.29;80.24
23363;BME280;11853;48.080;11.960;2023-02-08T07:41:11;96516.75;;;-3.39;82.35
23363;BME280;11853;48.080;11.960;2023-02-08T07:43:38;96519.13;;;-3.27;82.46
23363;BME280;11853;48.080;11.960;2023-02-08T07:46:06;96511.16;;;-3.14;82.14
23363;BME280;11853;48.080;11.960;2023-02-08T07:48:33;96516.34;;;-3.14;81.85
23363;BME280;11853;48.080;11.960;2023-02-08T07:50:58;96523.16;;;-3.09;79.98
23363;BME280;11853;48.080;11.960;2023-02-08T07:53:24;96519.72;;;-3.12;80.98
23363;BME280;11853;48.080;11.960;2023-02-08T07:55:49;96523.94;;;-3.07;81.03
23363;BME280;11853;48.080;11.960;2023-02-08T07:58:15;96516.03;;;-3.01;81.98
23363;BME280;11853;48.080;11.960;2023-02-08T08:00:40;96523.50;;;-2.84;81.18
23363;BME280;11853;48.080;11.960;2023-02-08T08:03:06;96511.75;;;-2.58;79.31
23363;BME280;11853;48.080;11.960;2023-02-08T08:05:31;96514.41;;;-2.61;80.11
23363;BME280;11853;48.080;11.960;2023-02-08T08:07:57;96510.88;;;-2.57;78.52
23363;BME280;11853;48.080;11.960;2023-02-08T08:10:22;96522.38;;;-2.70;79.22
23363;BME280;11853;48.080;11.960;2023-02-08T08:12:48;96509.63;;;-2.41;78.53
23363;BME280;11853;48.080;11.960;2023-02-08T08:15:13;96503.91;;;-2.16;78.97
23363;BME280;11853;48.080;11.960;2023-02-08T08:17:39;96514.59;;;-1.55;76.88
23363;BME280;11853;48.080;11.960;2023-02-08T08:20:08;96516.91;;;-1.10;72.69
23363;BME280;11853;48.080;11.960;2023-02-08T08:22:34;96514.94;;;-0.70;70.72
23363;BME280;11853;48.080;11.960;2023-02-08T08:24:59;96504.53;;;-0.40;70.36
23363;BME280;11853;48.080;11.960;2023-02-08T08:27:25;96508.19;;;0.11;68.84
23363;BME280;11853;48.080;11.960;2023-02-08T08:29:50;96513.94;;;0.49;67.76
23363;BME280;11853;48.080;11.960;2023-02-08T08:32:16;96508.25;;;0.89;64.55
23363;BME280;11853;48.080;11.960;2023-02-08T08:34:41;96505.69;;;1.38;63.37
23363;BME280;11853;48.080;11.960;2023-02-08T08:37:08;96497.59;;;1.67;62.24
23363;BME280;11853;48.080;11.960;2023-02-08T08:39:33;96506.69;;;2.02;59.74
23363;BME280;11853;48.080;11.960;2023-02-08T08:42:00;96506.19;;;2.38;57.48
23363;BME280;11853;48.080;11.960;2023-02-08T08:44:25;96505.53;;;2.96;56.11
23363;BME280;11853;48.080;11.960;2023-02-08T08:46:55;96509.16;;;2.71;56.03
23363;BME280;11853;48.080;11.960;2023-02-08T08:49:22;96507.50;;;2.48;56.73
23363;BME280;11853;48.080;11.960;2023-02-08T08:51:48;96501.00;;;2.79;55.75
23363;BME280;11853;48.080;11.960;2023-02-08T08:54:13;96510.19;;;3.10;55.99
23363;BME280;11853;48.080;11.960;2023-02-08T08:56:39;96498.66;;;3.53;55.64
23363;BME280;11853;48.080;11.960;2023-02-08T08:59:04;96506.13;;;4.00;53.26
23363;BME280;11853;48.080;11.960;2023-02-08T09:01:30;96500.13;;;3.98;51.23
23363;BME280;11853;48.080;11.960;2023-02-08T09:03:56;96501.03;;;3.78;52.57
23363;BME280;11853;48.080;11.960;2023-02-08T09:06:21;96498.56;;;3.75;51.89
23363;BME280;11853;48.080;11.960;2023-02-08T09:08:47;96503.84;;;4.31;52.05
23363;BME280;11853;48.080;11.960;2023-02-08T09:11:14;96499.94;;;4.57;50.97
23363;BME280;11853;48.080;11.960;2023-02-08T09:13:41;96496.31;;;4.59;49.31
23363;BME280;11853;48.080;11.960;2023-02-08T09:16:16;96504.97;;;4.44;50.44
23363;BME280;11853;48.080;11.960;2023-02-08T09:18:43;96494.81;;;4.72;50.79
23363;BME280;11853;48.080;11.960;2023-02-08T09:21:14;96504.84;;;4.64;51.35
23363;BME280;11853;48.080;11.960;2023-02-08T09:23:40;96508.81;;;4.54;51.46
23363;BME280;11853;48.080;11.960;2023-02-08T09:26:08;96510.31;;;4.77;49.23
23363;BME280;11853;48.080;11.960;2023-02-08T09:28:34;96505.94;;;5.12;49.53
23363;BME280;11853;48.080;11.960;2023-02-08T09:31:09;96508.88;;;4.89;50.38
23363;BME280;11853;48.080;11.960;2023-02-08T09:33:35;96517.31;;;5.63;48.30
23363;BME280;11853;48.080;11.960;2023-02-08T09:36:01;96510.41;;;5.28;47.79
23363;BME280;11853;48.080;11.960;2023-02-08T09:38:26;96518.31;;;5.10;48.27
23363;BME280;11853;48.080;11.960;2023-02-08T09:46:11;96507.47;;;5.67;47.86
23363;BME280;11853;48.080;11.960;2023-02-08T09:48:40;96505.78;;;6.15;46.53
23363;BME280;11853;48.080;11.960;2023-02-08T09:51:32;96503.81;;;6.03;46.55
23363;BME280;11853;48.080;11.960;2023-02-08T09:54:20;96506.56;;;6.33;46.78
23363;BME280;11853;48.080;11.960;2023-02-08T09:56:47;96508.56;;;6.60;46.12
23363;BME280;11853;48.080;11.960;2023-02-08T09:59:20;96505.19;;;6.42;45.25
23363;BME280;11853;48.080;11.960;2023-02-08T10:01:48;96505.63;;;6.34;47.74
23363;BME280;11853;48.080;11.960;2023-02-08T10:04:47;96508.88;;;6.69;44.27
23363;BME280;11853;48.080;11.960;2023-02-08T10:07:17;96501.50;;;5.63;45.73
23363;BME280;11853;48.080;11.960;2023-02-08T10:09:44;96504.22;;;5.29;46.54
23363;BME280;11853;48.080;11.960;2023-02-08T10:12:45;96511.16;;;4.60;47.46
23363;BME280;11853;48.080;11.960;2023-02-08T10:20:55;96502.88;;;3.76;50.85
23363;BME280;11853;48.080;11.960;2023-02-08T10:26:36;96500.75;;;4.40;49.21
23363;BME280;11853;48.080;11.960;2023-02-08T10:29:32;96497.03;;;3.89;50.59
23363;BME280;11853;48.080;11.960;2023-02-08T10:32:54;96504.28;;;3.25;54.17
23363;BME280;11853;48.080;11.960;2023-02-08T10:35:31;96493.34;;;3.15;53.43
23363;BME280;11853;48.080;11.960;2023-02-08T10:38:31;96474.63;;;3.44;53.89
23363;BME280;11853;48.080;11.960;2023-02-08T10:40:59;96479.31;;;3.75;51.76
23363;BME280;11853;48.080;11.960;2023-02-08T10:46:06;96471.13;;;4.19;50.95
23363;BME280;11853;48.080;11.960;2023-02-08T10:51:17;96471.59;;;3.91;51.51
23363;BME280;11853;48.080;11.960;2023-02-08T10:53:43;96473.81;;;4.17;51.97
23363;BME280;11853;48.080;11.960;2023-02-08T10:59:13;96459.53;;;3.87;54.22
23363;BME280;11853;48.080;11.960;2023-02-08T11:01:40;96467.25;;;4.45;52.72
23363;BME280;11853;48.080;11.960;2023-02-08T11:04:08;96465.19;;;4.15;52.43
23363;BME280;11853;48.080;11.960;2023-02-08T11:06:38;96452.72;;;3.82;53.08
23363;BME280;11853;48.080;11.960;2023-02-08T11:09:05;96458.47;;;3.91;54.25
23363;BME280;11853;48.080;11.960;2023-02-08T11:11:36;96458.09;;;3.79;53.95
23363;BME280;11853;48.080;11.960;2023-02-08T11:14:08;96442.63;;;3.35;55.10
23363;BME280;11853;48.080;11.960;2023-02-08T11:16:37;96443.84;;;3.08;55.44
23363;BME280;11853;48.080;11.960;2023-02-08T11:19:03;96452.94;;;3.01;55.56
23363;BME280;11853;48.080;11.960;2023-02-08T11:21:37;96456.31;;;3.03;56.32
23363;BME280;11853;48.080;11.960;2023-02-08T11:24:24;96449.03;;;2.89;55.57
23363;BME280;11853;48.080;11.960;2023-02-08T11:26:51;96453.91;;;2.98;55.18
23363;BME280;11853;48.080;11.960;2023-02-08T11:29:25;96455.47;;;2.82;56.31
23363;BME280;11853;48.080;11.960;2023-02-08T11:31:56;96456.97;;;2.87;55.61
23363;BME280;11853;48.080;11.960;2023-02-08T11:34:31;96442.63;;;2.76;56.91
23363;BME280;11853;48.080;11.960;2023-02-08T11:37:00;96444.41;;;2.75;56.31
23363;BME280;11853;48.080;11.960;2023-02-08T11:39:39;96442.13;;;2.25;58.41
23363;BME280;11853;48.080;11.960;2023-02-08T11:42:18;96433.28;;;2.70;57.36
23363;BME280;11853;48.080;11.960;2023-02-08T11:44:44;96436.28;;;2.81;56.86
23363;BME280;11853;48.080;11.960;2023-02-08T11:47:15;96435.63;;;2.56;56.75
23363;BME280;11853;48.080;11.960;2023-02-08T11:49:43;96432.47;;;2.68;57.89
23363;BME280;11853;48.080;11.960;2023-02-08T11:52:30;96430.78;;;2.67;56.27
23363;BME280;11853;48.080;11.960;2023-02-08T11:57:56;96425.47;;;2.48;59.31
23363;BME280;11853;48.080;11.960;2023-02-08T12:00:25;96429.84;;;2.68;58.74
23363;BME280;11853;48.080;11.960;2023-02-08T12:02:57;96427.47;;;3.03;57.18
23363;BME280;11853;48.080;11.960;2023-02-08T12:05:41;96422.75;;;3.11;56.67
23363;BME280;11853;48.080;11.960;2023-02-08T12:11:06;96412.44;;;2.87;56.52
23363;BME280;11853;48.080;11.960;2023-02-08T12:22:19;96400.22;;;2.05;60.20
23363;BME280;11853;48.080;11.960;2023-02-08T12:30:29;96380.53;;;2.37;59.35
23363;BME280;11853;48.080;11.960;2023-02-08T12:33:11;96382.56;;;2.30;58.52
23363;BME280;11853;48.080;11.960;2023-02-08T12:39:11;96381.84;;;1.84;61.54
23363;BME280;11853;48.080;11.960;2023-02-08T12:55:04;96346.19;;;2.03;59.92
23363;BME280;11853;48.080;11.960;2023-02-08T12:57:33;96341.56;;;1.88;60.05
23363;BME280;11853;48.080;11.960;2023-02-08T13:00:05;96342.34;;;1.68;61.83
23363;BME280;11853;48.080;11.960;2023-02-08T13:02:37;96345.91;;;1.67;62.19
23363;BME280;11853;48.080;11.960;2023-02-08T13:05:18;96329.50;;;1.64;63.68
23363;BME280;11853;48.080;11.960;2023-02-08T13:07:47;96335.91;;;1.77;63.86
23363;BME280;11853;48.080;11.960;2023-02-08T13:10:19;96337.50;;;1.81;63.03
23363;BME280;11853;48.080;11.960;2023-02-08T13:12:52;96342.34;;;1.90;61.64
23363;BME280;11853;48.080;11.960;2023-02-08T13:15:26;96344.13;;;1.68;62.22
23363;BME280;11853;48.080;11.960;2023-02-08T13:18:01;96333.88;;;1.63;62.86
23363;BME280;11853;48.080;11.960;2023-02-08T13:20:42;96335.19;;;1.73;63.38
23363;BME280;11853;48.080;11.960;2023-02-08T13:23:32;96330.59;;;1.58;62.81
23363;BME280;11853;48.080;11.960;2023-02-08T13:26:04;96323.03;;;1.50;64.23
23363;BME280;11853;48.080;11.960;2023-02-08T13:28:31;96310.38;;;1.62;63.38
23363;BME280;11853;48.080;11.960;2023-02-08T13:31:05;96318.06;;;1.44;62.79
23363;BME280;11853;48.080;11.960;2023-02-08T13:33:57;96308.66;;;1.17;65.18
23363;BME280;11853;48.080;11.960;2023-02-08T13:36:33;96306.72;;;1.22;64.41
23363;BME280;11853;48.080;11.960;2023-02-08T13:39:01;96308.50;;;1.21;63.13
23363;BME280;11853;48.080;11.960;2023-02-08T13:41:28;96307.22;;;1.09;64.51
23363;BME280;11853;48.080;11.960;2023-02-08T13:44:00;96309.28;;;1.01;65.31
23363;BME280;11853;48.080;11.960;2023-02-08T13:46:35;96307.47;;;1.03;65.13
23363;BME280;11853;48.080;11.960;2023-02-08T13:49:01;96292.50;;;1.07;63.72
23363;BME280;11853;48.080;11.960;2023-02-08T13:59:35;96290.25;;;0.74;64.79
23363;BME280;11853;48.080;11.960;2023-02-08T14:04:49;96291.75;;;0.58;66.77
23363;BME280;11853;48.080;11.960;2023-02-08T14:07:45;96278.59;;;0.83;66.21
23363;BME280;11853;48.080;11.960;2023-02-08T14:10:30;96292.34;;;0.88;65.33
23363;BME280;11853;48.080;11.960;2023-02-08T14:13:06;96289.06;;;0.83;65.66
23363;BME280;11853;48.080;11.960;2023-02-08T14:15:41;96289.69;;;0.89;65.47
23363;BME280;11853;48.080;11.960;2023-02-08T14:18:34;96288.50;;;0.75;65.73
23363;BME280;11853;48.080;11.960;2023-02-08T14:21:06;96277.84;;;0.81;65.71
23363;BME280;11853;48.080;11.960;2023-02-08T14:23:35;96284.50;;;0.88;65.34
23363;BME280;11853;48.080;11.960;2023-02-08T14:26:09;96274.88;;;0.90;64.61
23363;BME280;11853;48.080;11.960;2023-02-08T14:28:45;96280.22;;;0.87;64.56
23363;BME280;11853;48.080;11.960;2023-02-08T14:31:14;96277.94;;;0.78;64.83
23363;BME280;11853;48.080;11.960;2023-02-08T14:33:49;96283.81;;;0.83;65.21
23363;BME280;11853;48.080;11.960;2023-02-08T14:36:34;96284.53;;;0.64;64.95
23363;BME280;11853;48.080;11.960;2023-02-08T14:39:20;96275.13;;;0.60;65.80
23363;BME280;11853;48.080;11.960;2023-02-08T14:47:00;96273.28;;;0.62;65.80
23363;BME280;11853;48.080;11.960;2023-02-08T14:49:25;96285.91;;;0.75;64.81
23363;BME280;11853;48.080;11.960;2023-02-08T14:52:03;96275.63;;;0.70;65.39
23363;BME280;11853;48.080;11.960;2023-02-08T14:54:49;96285.94;;;0.73;64.57
23363;BME280;11853;48.080;11.960;2023-02-08T14:57:23;96284.41;;;0.67;64.65
23363;BME280;11853;48.080;11.960;2023-02-08T14:59:49;96275.66;;;0.68;64.22
23363;BME280;11853;48.080;11.960;2023-02-08T15:02:20;96276.81;;;0.61;65.20